Time;durP1;ratioP1;P1;durP2;ratioP2;P2;SDS_P1;SDS_P2;PMS_P1;PMS_P2;Temp;Humidity;BMP_temperature;BMP_pressure;BME280_temperature;BME280_humidity;BME280_pressure;Samples;Min_cycle;Max_cycle;Signal;HPM_P1;HPM_P2
2022/11/30 00:00:57;;;;;;;0.57;0.57;;;;;;;4.42;100.00;100561.00;7394721;19;20034;-57
2022/11/30 00:03:24;;;;;;;1.90;1.23;;;;;;;4.33;100.00;100559.97;7394699;19;20011;-57
2022/11/30 00:05:51;;;;;;;11.18;2.22;;;;;;;4.55;100.00;100556.47;7395997;19;20734;-57
2022/11/30 00:08:17;;;;;;;1.98;0.73;;;;;;;4.36;100.00;100548.09;7396195;19;20014;-57
2022/11/30 00:10:43;;;;;;;2.80;0.68;;;;;;;4.30;100.00;100550.53;7395000;19;20617;-57
2022/11/30 00:13:10;;;;;;;6.03;1.05;;;;;;;4.30;100.00;100550.53;7391247;19;20487;-57
2022/11/30 00:15:37;;;;;;;7.15;1.42;;;;;;;4.25;100.00;100539.19;7392076;19;20047;-57
2022/11/30 00:18:03;;;;;;;5.57;0.98;;;;;;;4.23;100.00;100545.13;7391001;19;20375;-57
2022/11/30 00:20:30;;;;;;;0.80;0.63;;;;;;;4.19;100.00;100541.66;7392452;19;20025;-58
2022/11/30 00:22:57;;;;;;;2.45;1.00;;;;;;;4.19;100.00;100538.88;7392070;19;20015;-57
2022/11/30 00:25:23;;;;;;;7.30;1.38;;;;;;;4.19;100.00;100533.38;7392087;19;20086;-57
2022/11/30 00:27:51;;;;;;;1.05;1.05;;;;;;;4.19;100.00;100533.38;7392820;19;20011;-57
2022/11/30 00:30:17;;;;;;;8.90;2.13;;;;;;;4.19;100.00;100535.34;7392598;19;20014;-57
2022/11/30 00:32:43;;;;;;;0.45;0.38;;;;;;;4.17;100.00;100530.25;7391874;19;20756;-57
2022/11/30 00:35:09;;;;;;;4.15;1.33;;;;;;;4.15;100.00;100543.69;7390089;19;20011;-57
2022/11/30 00:37:35;;;;;;;0.38;0.38;;;;;;;4.15;100.00;100542.88;7389601;19;20041;-57
2022/11/30 00:40:02;;;;;;;2.70;0.93;;;;;;;4.13;100.00;100546.06;7391674;19;20049;-57
2022/11/30 00:42:28;;;;;;;3.70;1.20;;;;;;;4.13;100.00;100546.06;7391954;19;20490;-57
2022/11/30 00:44:54;;;;;;;0.68;0.55;;;;;;;4.51;100.00;100550.22;7393348;19;20010;-57
2022/11/30 00:47:20;;;;;;;5.40;0.77;;;;;;;8.91;100.00;100527.63;7390810;19;20349;-57
2022/11/30 00:49:46;;;;;;;4.53;1.67;;;;;;;7.10;100.00;100527.88;7391094;19;20022;-57
2022/11/30 00:52:12;;;;;;;0.85;0.43;;;;;;;4.81;100.00;100527.28;7393340;19;20014;-57
2022/11/30 00:54:38;;;;;;;0.20;0.20;;;;;;;4.30;100.00;100539.53;7388128;19;20014;-57
2022/11/30 00:57:05;;;;;;;3.88;1.48;;;;;;;5.29;100.00;100541.41;7390941;19;20463;-57
2022/11/30 00:59:31;;;;;;;8.93;1.17;;;;;;;8.14;100.00;100524.53;7388222;19;20010;-57
2022/11/30 01:01:57;;;;;;;3.47;1.02;;;;;;;7.30;100.00;100522.97;7392941;19;20010;-58
2022/11/30 01:04:23;;;;;;;8.02;2.03;;;;;;;5.73;100.00;100523.56;7393672;19;20007;-57
2022/11/30 01:06:50;;;;;;;0.98;0.65;;;;;;;9.00;100.00;100513.03;7394184;19;20836;-57
2022/11/30 01:09:16;;;;;;;2.95;0.80;;;;;;;7.47;100.00;100523.72;7391383;19;20029;-57
2022/11/30 01:11:42;;;;;;;5.63;0.80;;;;;;;5.34;100.00;100531.84;7393157;19;20562;-57
2022/11/30 01:14:09;;;;;;;0.98;0.80;;;;;;;6.78;100.00;100530.66;7388531;19;20413;-57
2022/11/30 01:16:35;;;;;;;4.15;0.60;;;;;;;5.93;100.00;100532.63;7389972;19;20531;-57
2022/11/30 01:19:02;;;;;;;2.00;0.88;;;;;;;9.04;100.00;100524.81;7390827;19;20010;-57
2022/11/30 01:21:29;;;;;;;4.40;1.02;;;;;;;9.42;100.00;100530.25;7393438;19;20461;-57
2022/11/30 01:23:55;;;;;;;3.10;0.85;;;;;;;6.59;100.00;100537.06;7388209;19;20662;-57
2022/11/30 01:26:23;;;;;;;0.70;0.63;;;;;;;4.69;100.00;100535.38;7390725;19;20027;-57
2022/11/30 01:28:53;;;;;;;2.80;0.98;;;;;;;4.13;100.00;100540.56;7392366;19;20873;-57
2022/11/30 01:31:22;;;;;;;11.10;1.17;;;;;;;3.95;100.00;100545.50;7392387;19;20021;-57
2022/11/30 01:33:50;;;;;;;2.50;1.63;;;;;;;8.72;100.00;100530.66;7387567;19;20091;-57
2022/11/30 01:36:20;;;;;;;7.03;1.65;;;;;;;10.36;100.00;100525.13;7389140;19;20014;-57
2022/11/30 01:38:52;;;;;;;11.65;1.10;;;;;;;8.58;100.00;100526.34;7387987;19;20020;-57
2022/11/30 01:41:30;;;;;;;1.20;0.63;;;;;;;9.97;100.00;100523.03;7392121;19;20109;-57
2022/11/30 01:44:16;;;;;;;3.03;0.73;;;;;;;9.70;100.00;100527.19;7393035;19;20356;-57
2022/11/30 01:46:59;;;;;;;2.80;1.05;;;;;;;11.29;100.00;100520.84;7386633;19;20007;-57
2022/11/30 01:49:36;;;;;;;1.85;1.13;;;;;;;8.48;100.00;100532.22;7387102;19;20129;-57
2022/11/30 01:52:09;;;;;;;4.13;0.90;;;;;;;4.75;100.00;100536.44;7393046;19;20483;-57
2022/11/30 01:54:48;;;;;;;7.25;0.65;;;;;;;8.13;100.00;100534.06;7387367;19;20011;-57
2022/11/30 01:57:21;;;;;;;3.33;0.98;;;;;;;10.55;100.00;100529.53;7390572;19;20011;-57
2022/11/30 01:59:51;;;;;;;0.43;0.43;;;;;;;11.47;100.00;100534.81;7389324;19;20002;-57
2022/11/30 02:02:29;;;;;;;6.03;1.95;;;;;;;12.43;100.00;100531.22;7393049;19;20474;-57
2022/11/30 02:04:55;;;;;;;1.35;0.30;;;;;;;12.13;100.00;100539.38;7389274;19;20044;-57
2022/11/30 02:07:21;;;;;;;0.52;0.30;;;;;;;11.04;100.00;100549.03;7390081;19;20354;-57
2022/11/30 02:09:47;;;;;;;0.38;0.38;;;;;;;9.08;100.00;100547.69;7386417;19;20018;-57
2022/11/30 02:12:46;;;;;;;0.47;0.47;;;;;;;8.11;100.00;100544.84;7391791;19;20023;-57
2022/11/30 02:15:20;;;;;;;2.38;0.32;;;;;;;10.09;100.00;100539.66;7382671;19;20394;-57
2022/11/30 02:17:56;;;;;;;1.60;0.57;;;;;;;12.03;100.00;100556.63;7387940;19;20399;-57
2022/11/30 02:20:54;;;;;;;2.95;0.88;;;;;;;12.57;100.00;100552.88;7391878;19;20010;-57
2022/11/30 02:23:29;;;;;;;7.75;0.88;;;;;;;12.84;100.00;100547.19;7390211;19;20074;-57
2022/11/30 02:26:15;;;;;;;3.10;0.60;;;;;;;13.59;100.00;100548.53;7391288;19;20035;-57
2022/11/30 02:29:15;;;;;;;1.10;1.02;;;;;;;7.77;100.00;100558.53;7389202;19;20019;-57
2022/11/30 02:32:04;;;;;;;6.45;0.57;;;;;;;12.96;100.00;100554.56;7392499;19;20014;-57
2022/11/30 02:34:33;;;;;;;1.55;0.55;;;;;;;14.90;100.00;100550.50;7387560;19;20014;-57
2022/11/30 02:37:01;;;;;;;2.75;1.00;;;;;;;7.62;100.00;100561.69;7388257;19;20472;-57
2022/11/30 02:39:27;;;;;;;0.47;0.45;;;;;;;4.87;100.00;100560.69;7388048;19;20029;-57
2022/11/30 02:41:53;;;;;;;1.00;0.90;;;;;;;4.22;100.00;100565.59;7395819;19;20070;-57
2022/11/30 02:44:21;;;;;;;2.25;0.60;;;;;;;3.95;100.00;100562.06;7394308;19;20018;-57
2022/11/30 02:47:30;;;;;;;0.68;0.60;;;;;;;3.79;100.00;100561.84;7397538;19;20011;-57
2022/11/30 02:50:16;;;;;;;16.83;1.35;;;;;;;3.72;100.00;100567.47;7393126;19;20010;-57
2022/11/30 02:52:43;;;;;;;1.55;1.00;;;;;;;3.69;100.00;100565.53;7395745;19;20464;-57
2022/11/30 02:55:13;;;;;;;0.55;0.40;;;;;;;3.79;100.00;100565.38;7392241;19;20045;-57
2022/11/30 02:57:39;;;;;;;9.25;0.47;;;;;;;4.73;100.00;100567.22;7395108;19;20099;-57
2022/11/30 03:00:09;;;;;;;2.20;1.10;;;;;;;3.90;100.00;100570.00;7395304;19;20018;-57
2022/11/30 03:02:36;;;;;;;1.48;0.50;;;;;;;3.97;100.00;100565.16;7394629;19;20006;-57
2022/11/30 03:05:02;;;;;;;1.40;0.68;;;;;;;5.53;100.00;100555.94;7394618;19;20049;-57
2022/11/30 03:07:29;;;;;;;3.47;1.10;;;;;;;8.89;100.00;100549.53;7397907;19;20013;-57
2022/11/30 03:09:55;;;;;;;1.23;0.75;;;;;;;7.83;100.00;100549.22;7398998;19;20027;-57
2022/11/30 03:12:21;;;;;;;2.13;1.45;;;;;;;11.74;100.00;100548.75;7394059;19;20511;-57
2022/11/30 03:14:48;;;;;;;11.50;0.90;;;;;;;12.93;100.00;100544.31;7393600;19;20017;-57
2022/11/30 03:17:14;;;;;;;2.97;1.27;;;;;;;15.83;100.00;100540.97;7397455;19;20011;-57
2022/11/30 03:19:40;;;;;;;0.80;0.80;;;;;;;10.97;100.00;100554.88;7394064;19;20190;-57
2022/11/30 03:22:06;;;;;;;3.85;0.40;;;;;;;5.81;100.00;100551.81;7397284;19;20459;-57
2022/11/30 03:24:32;;;;;;;0.40;0.30;;;;;;;4.52;100.00;100560.06;7393565;19;20018;-57
2022/11/30 03:26:58;;;;;;;2.83;0.60;;;;;;;3.88;100.00;100562.13;7393969;19;20018;-57
2022/11/30 03:29:25;;;;;;;2.05;1.83;;;;;;;3.77;100.00;100567.00;7394089;19;20014;-57
2022/11/30 03:31:51;;;;;;;0.47;0.47;;;;;;;3.69;100.00;100566.31;7398071;19;20066;-58
2022/11/30 03:34:17;;;;;;;9.43;1.10;;;;;;;3.65;100.00;100571.09;7393371;19;20018;-58
2022/11/30 03:36:43;;;;;;;3.92;1.20;;;;;;;3.87;100.00;100576.31;7392375;19;20006;-57
2022/11/30 03:39:09;;;;;;;1.27;0.68;;;;;;;4.00;100.00;100574.59;7392086;19;20468;-57
2022/11/30 03:41:35;;;;;;;2.25;1.23;;;;;;;3.84;100.00;100575.19;7396998;19;20644;-57
2022/11/30 03:44:01;;;;;;;6.22;0.95;;;;;;;3.70;100.00;100583.63;7393073;19;20014;-57
2022/11/30 03:46:28;;;;;;;13.80;0.73;;;;;;;3.56;100.00;100581.00;7393659;19;20014;-57
2022/11/30 03:48:54;;;;;;;0.68;0.57;;;;;;;3.49;100.00;100583.84;7393957;19;20074;-57
2022/11/30 03:51:20;;;;;;;4.32;1.08;;;;;;;3.51;100.00;100587.00;7397586;19;20636;-57
2022/11/30 03:53:46;;;;;;;1.75;0.75;;;;;;;3.79;100.00;100586.63;7391983;19;20015;-58
2022/11/30 03:56:13;;;;;;;0.20;0.20;;;;;;;4.63;100.00;100570.94;7392806;19;20031;-58
2022/11/30 03:58:39;;;;;;;3.45;0.28;;;;;;;3.94;100.00;100571.53;7392109;19;20039;-58
2022/11/30 04:01:09;;;;;;;0.30;0.30;;;;;;;3.55;100.00;100587.72;7396330;19;20468;-57
2022/11/30 04:03:37;;;;;;;4.07;1.13;;;;;;;3.69;100.00;100590.31;7391595;19;20010;-57
2022/11/30 04:06:04;;;;;;;3.40;0.75;;;;;;;3.63;100.00;100589.19;7392810;19;20010;-58
2022/11/30 04:08:31;;;;;;;4.68;1.38;;;;;;;3.62;100.00;100587.63;7397539;19;20368;-58
2022/11/30 04:10:59;;;;;;;0.80;0.40;;;;;;;5.52;100.00;100590.31;7395298;19;20010;-57
2022/11/30 04:13:26;;;;;;;4.82;0.43;;;;;;;4.06;100.00;100581.97;7392945;19;20006;-57
2022/11/30 04:15:53;;;;;;;3.03;1.20;;;;;;;4.49;100.00;100582.97;7392483;19;20342;-58
2022/11/30 04:18:21;;;;;;;0.52;0.50;;;;;;;3.56;100.00;100590.06;7392292;19;20066;-57
2022/11/30 04:20:51;;;;;;;0.40;0.40;;;;;;;3.89;100.00;100591.25;7395279;19;20014;-57
2022/11/30 04:23:18;;;;;;;0.85;0.43;;;;;;;4.21;100.00;100597.13;7396466;19;20006;-57
2022/11/30 04:25:44;;;;;;;1.67;1.02;;;;;;;3.84;100.00;100589.75;7392355;19;20010;-58
2022/11/30 04:28:10;;;;;;;12.65;1.90;;;;;;;3.54;100.00;100594.41;7391391;19;20676;-57
2022/11/30 04:30:37;;;;;;;0.20;0.20;;;;;;;4.90;100.00;100593.75;7392996;19;20070;-58
2022/11/30 04:33:04;;;;;;;4.45;1.38;;;;;;;3.74;100.00;100592.63;7391278;19;20017;-58
2022/11/30 04:35:31;;;;;;;1.20;0.70;;;;;;;3.36;100.00;100602.06;7391860;19;20018;-58
2022/11/30 04:37:57;;;;;;;0.32;0.32;;;;;;;3.40;100.00;100608.34;7391975;19;20042;-58
2022/11/30 04:40:24;;;;;;;0.10;0.10;;;;;;;3.32;100.00;100615.09;7393761;19;20139;-57
2022/11/30 04:42:50;;;;;;;15.55;1.92;;;;;;;3.23;100.00;100612.81;7391591;19;20010;-57
2022/11/30 04:45:16;;;;;;;2.63;0.57;;;;;;;3.23;100.00;100631.31;7391030;19;20014;-58
2022/11/30 04:47:42;;;;;;;1.95;0.60;;;;;;;3.23;100.00;100631.31;7391171;19;20018;-58
2022/11/30 04:50:09;;;;;;;0.45;0.45;;;;;;;3.27;100.00;100634.81;7392753;19;20022;-57
2022/11/30 04:52:35;;;;;;;8.27;1.45;;;;;;;3.34;100.00;100637.47;7393190;19;20017;-58
2022/11/30 04:55:03;;;;;;;2.58;1.67;;;;;;;3.37;100.00;100639.44;7393386;19;20109;-58
2022/11/30 04:57:30;;;;;;;1.98;0.85;;;;;;;3.36;100.00;100646.91;7393723;19;20014;-58
2022/11/30 04:59:56;;;;;;;0.73;0.55;;;;;;;3.36;100.00;100652.41;7393129;19;20465;-57
2022/11/30 05:02:22;;;;;;;2.20;0.70;;;;;;;3.34;100.00;100648.47;7391583;19;20321;-58
2022/11/30 05:04:48;;;;;;;0.60;0.60;;;;;;;3.30;100.00;100645.00;7390005;19;20040;-58
2022/11/30 05:07:14;;;;;;;0.32;0.30;;;;;;;3.30;100.00;100650.50;7396168;19;20344;-58
2022/11/30 05:09:40;;;;;;;3.47;0.70;;;;;;;3.23;100.00;100653.34;7389870;19;20772;-58
2022/11/30 05:12:06;;;;;;;1.95;0.73;;;;;;;3.19;100.00;100658.06;7393885;19;20006;-57
2022/11/30 05:14:33;;;;;;;6.45;1.05;;;;;;;3.18;100.00;100656.50;7392318;19;20349;-58
2022/11/30 05:16:59;;;;;;;2.38;0.73;;;;;;;3.17;100.00;100652.97;7388941;19;20053;-58
2022/11/30 05:19:25;;;;;;;6.53;0.43;;;;;;;3.18;100.00;100651.00;7390913;19;20017;-58
2022/11/30 05:21:51;;;;;;;0.50;0.15;;;;;;;3.24;100.00;100644.66;7393672;19;20015;-57
2022/11/30 05:24:17;;;;;;;4.15;0.90;;;;;;;3.19;100.00;100641.53;7389850;19;20010;-58
2022/11/30 05:26:43;;;;;;;0.30;0.30;;;;;;;4.77;100.00;100633.38;7390117;19;20066;-58
2022/11/30 05:29:09;;;;;;;1.95;0.95;;;;;;;5.00;100.00;100636.19;7389156;19;20014;-58
2022/11/30 05:31:37;;;;;;;0.28;0.28;;;;;;;4.75;100.00;100636.56;7393308;19;20025;-57
2022/11/30 05:34:03;;;;;;;1.60;1.25;;;;;;;3.79;100.00;100641.72;7390562;19;20078;-58
2022/11/30 05:36:29;;;;;;;0.68;0.68;;;;;;;3.43;100.00;100654.31;7391887;19;20017;-58
2022/11/30 05:38:55;;;;;;;3.03;0.90;;;;;;;3.29;100.00;100648.94;7391206;19;20017;-58
2022/11/30 05:41:21;;;;;;;0.55;0.35;;;;;;;3.25;100.00;100646.19;7392623;19;20026;-57
2022/11/30 05:43:48;;;;;;;8.35;1.40;;;;;;;3.24;100.00;100654.88;7387018;19;20015;-58
2022/11/30 05:46:14;;;;;;;2.85;0.80;;;;;;;3.20;100.00;100656.88;7388905;19;20009;-57
2022/11/30 05:48:40;;;;;;;0.50;0.43;;;;;;;3.14;100.00;100655.75;7389624;19;20070;-57
2022/11/30 05:51:12;;;;;;;1.30;0.95;;;;;;;3.10;100.00;100661.28;7392324;19;20010;-57
2022/11/30 05:53:38;;;;;;;2.42;1.05;;;;;;;3.42;100.00;100664.53;7389624;19;20030;-57
2022/11/30 05:56:09;;;;;;;6.22;1.48;;;;;;;3.56;100.00;100660.88;7394298;19;20325;-58
2022/11/30 05:58:36;;;;;;;4.65;0.77;;;;;;;3.46;100.00;100654.28;7394798;19;20011;-57
2022/11/30 06:01:02;;;;;;;0.52;0.52;;;;;;;3.46;100.00;100662.56;7395168;19;20015;-57
2022/11/30 06:03:30;;;;;;;5.68;0.70;;;;;;;3.39;100.00;100651.59;7394744;19;20010;-57
2022/11/30 06:05:56;;;;;;;5.00;0.93;;;;;;;3.36;100.00;100655.16;7393463;19;20018;-57
2022/11/30 06:08:22;;;;;;;8.05;0.68;;;;;;;3.34;100.00;100659.50;7397518;19;20346;-57
2022/11/30 06:10:49;;;;;;;2.40;1.23;;;;;;;3.29;100.00;100655.22;7395637;19;20984;-58
2022/11/30 06:13:15;;;;;;;3.35;0.30;;;;;;;3.24;100.00;100652.91;7393221;19;20010;-57
2022/11/30 06:15:41;;;;;;;8.07;1.48;;;;;;;3.22;100.00;100658.03;7394267;19;20018;-57
2022/11/30 06:18:11;;;;;;;2.03;1.55;;;;;;;3.20;100.00;100659.63;7401182;19;20121;-57
2022/11/30 06:20:37;;;;;;;2.65;1.08;;;;;;;3.17;100.00;100650.22;7399513;19;20013;-63
2022/11/30 06:23:04;;;;;;;1.50;0.52;;;;;;;3.21;100.00;100656.47;7400773;19;20015;-89
2022/11/30 06:25:30;;;;;;;0.38;0.30;;;;;;;3.19;100.00;100647.84;7398301;19;20354;-89
2022/11/30 06:27:57;;;;;;;0.25;0.25;;;;;;;3.27;100.00;100648.56;7402040;19;20018;-89
2022/11/30 06:30:23;;;;;;;1.88;0.50;;;;;;;4.00;100.00;100647.03;7402107;19;20015;-89
2022/11/30 06:32:51;;;;;;;7.97;1.30;;;;;;;3.40;100.00;100657.91;7402041;19;20019;-89
2022/11/30 06:35:17;;;;;;;13.85;1.77;;;;;;;3.35;100.00;100661.06;7403823;19;20462;-88
2022/11/30 06:37:44;;;;;;;8.88;0.95;;;;;;;3.28;100.00;100652.88;7397260;19;20002;-88
2022/11/30 06:40:12;;;;;;;0.50;0.50;;;;;;;3.26;100.00;100647.00;7397798;19;20025;-88
2022/11/30 06:42:38;;;;;;;3.10;0.50;;;;;;;3.27;100.00;100652.09;7397394;19;20016;-88
2022/11/30 06:45:06;;;;;;;0.35;0.35;;;;;;;3.27;100.00;100654.06;7399514;19;20015;-89
2022/11/30 06:47:32;;;;;;;1.48;1.35;;;;;;;3.28;100.00;100656.41;7400647;19;20070;-88
2022/11/30 06:49:58;;;;;;;4.60;0.93;;;;;;;3.28;100.00;100658.38;7400072;19;20081;-88
2022/11/30 06:52:25;;;;;;;3.53;0.43;;;;;;;3.31;100.00;100661.13;7399929;19;20426;-88
2022/11/30 06:54:51;;;;;;;1.20;0.70;;;;;;;3.36;100.00;100668.13;7398666;19;20014;-89
2022/11/30 06:57:17;;;;;;;4.80;0.60;;;;;;;3.33;100.00;100663.44;7398525;19;20018;-89
2022/11/30 06:59:43;;;;;;;4.07;1.23;;;;;;;3.34;100.00;100665.00;7395779;19;20026;-89
2022/11/30 07:02:14;;;;;;;3.22;0.43;;;;;;;3.36;100.00;100671.66;7402977;19;20375;-89
2022/11/30 07:04:40;;;;;;;12.15;1.45;;;;;;;3.48;100.00;100670.41;7398157;19;20354;-89
2022/11/30 07:07:07;;;;;;;1.10;0.75;;;;;;;6.37;100.00;100666.03;7401215;19;20074;-88
2022/11/30 07:09:34;;;;;;;0.28;0.28;;;;;;;6.77;100.00;100645.38;7399169;19;20003;-89
2022/11/30 07:12:00;;;;;;;0.73;0.47;;;;;;;9.75;100.00;100646.22;7405103;19;20018;-89
2022/11/30 07:14:27;;;;;;;2.85;0.45;;;;;;;8.60;100.00;100657.16;7403127;19;20014;-88
2022/11/30 07:16:53;;;;;;;3.13;0.73;;;;;;;9.66;100.00;100648.13;7397259;19;20019;-88
2022/11/30 07:19:19;;;;;;;3.20;1.23;;;;;;;10.48;100.00;100650.34;7399221;19;20018;-89
2022/11/30 07:21:46;;;;;;;0.45;0.38;;;;;;;14.11;100.00;100644.22;7400862;19;20006;-89
2022/11/30 07:27:01;;;;;;;1.55;0.63;;;;;;;13.85;100.00;100646.78;7398958;19;20014;-88
2022/11/30 07:29:27;;;;;;;0.17;0.17;;;;;;;15.71;100.00;100643.22;7399971;19;20015;-88
2022/11/30 07:31:54;;;;;;;1.60;0.40;;;;;;;15.05;100.00;100655.03;7403446;19;20014;-88
2022/11/30 07:34:20;;;;;;;0.47;0.47;;;;;;;15.36;100.00;100653.69;7397194;19;20011;-88
2022/11/30 07:36:47;;;;;;;0.25;0.25;;;;;;;11.88;100.00;100661.78;7395894;19;20022;-89
2022/11/30 07:39:14;;;;;;;2.13;1.33;;;;;;;6.26;100.00;100671.78;7398822;19;20028;-88
2022/11/30 07:41:41;;;;;;;4.03;1.65;;;;;;;4.85;100.00;100667.97;7402437;19;20014;-89
2022/11/30 07:44:09;;;;;;;3.10;0.95;;;;;;;4.39;100.00;100679.63;7400526;19;20029;-88
2022/11/30 07:46:36;;;;;;;4.97;0.68;;;;;;;4.20;100.00;100681.03;7399222;19;20035;-89
2022/11/30 07:49:04;;;;;;;2.35;0.55;;;;;;;7.77;100.00;100683.28;7400934;19;20070;-89
2022/11/30 07:51:31;;;;;;;1.65;0.45;;;;;;;12.89;100.00;100678.69;7397423;19;20018;-88
2022/11/30 07:53:57;;;;;;;1.45;0.73;;;;;;;13.55;100.00;100687.88;7391760;19;20734;-88
2022/11/30 07:56:24;;;;;;;2.28;0.70;;;;;;;14.51;100.00;100682.94;7393678;19;20025;-88
2022/11/30 07:58:54;;;;;;;0.40;0.40;;;;;;;16.38;100.00;100682.03;7398520;19;20512;-89
2022/11/30 08:01:22;;;;;;;7.47;0.52;;;;;;;16.29;100.00;100685.00;7407177;19;20015;-95
2022/11/30 08:03:52;;;;;;;0.30;0.30;;;;;;;19.51;89.41;100685.19;7401499;19;20011;-91
2022/11/30 08:06:21;;;;;;;0.55;0.55;;;;;;;11.37;100.00;100704.13;7396734;19;20019;-92
2022/11/30 08:08:50;;;;;;;1.17;1.08;;;;;;;7.60;100.00;100699.94;7399758;19;20039;-92
2022/11/30 08:11:22;;;;;;;0.55;0.45;;;;;;;5.53;100.00;100699.59;7402620;19;20027;-91
2022/11/30 08:13:48;;;;;;;1.88;0.38;;;;;;;4.86;100.00;100700.66;7399344;19;20015;-90
2022/11/30 08:16:17;;;;;;;0.43;0.43;;;;;;;4.63;100.00;100712.38;7395868;19;20014;-91
2022/11/30 08:18:44;;;;;;;0.20;0.20;;;;;;;5.09;100.00;100705.44;7398736;19;20015;-91
2022/11/30 08:21:12;;;;;;;0.85;0.63;;;;;;;4.46;100.00;100710.63;7400368;19;20018;-91
2022/11/30 08:23:40;;;;;;;3.78;0.60;;;;;;;4.01;100.00;100720.22;7398513;19;20021;-94
2022/11/30 08:26:13;;;;;;;12.20;1.95;;;;;;;4.41;100.00;100732.38;7397423;19;20022;-92
2022/11/30 08:28:41;;;;;;;1.25;1.20;;;;;;;5.57;100.00;100719.66;7399020;19;20031;-92
2022/11/30 08:31:10;;;;;;;5.25;0.52;;;;;;;5.90;100.00;100715.94;7399068;19;20039;-92
2022/11/30 08:33:36;;;;;;;1.88;0.77;;;;;;;5.68;100.00;100714.72;7395296;19;20043;-92
2022/11/30 08:36:20;;;;;;;1.92;0.85;;;;;;;5.99;100.00;100707.88;7396675;19;20054;-91
2022/11/30 08:38:47;;;;;;;0.93;0.55;;;;;;;10.64;100.00;100700.25;7396098;19;20381;-92
2022/11/30 08:41:17;;;;;;;1.10;0.60;;;;;;;9.74;100.00;100711.44;7400438;19;20322;-92
2022/11/30 08:43:44;;;;;;;15.93;1.63;;;;;;;8.24;100.00;100706.56;7398375;19;20022;-91
2022/11/30 08:46:13;;;;;;;2.10;1.20;;;;;;;7.11;100.00;100709.44;7396564;19;20022;-91
2022/11/30 08:48:39;;;;;;;0.50;0.50;;;;;;;13.57;100.00;100710.56;7398140;19;20469;-92
2022/11/30 08:51:09;;;;;;;20.08;1.02;;;;;;;8.25;100.00;100722.00;7398179;19;20479;-93
2022/11/30 08:53:36;;;;;;;10.07;1.30;;;;;;;5.97;100.00;100726.88;7396483;19;20062;-92
2022/11/30 08:56:05;;;;;;;5.18;1.48;;;;;;;5.23;100.00;100716.25;7396903;19;20015;-91
2022/11/30 08:58:34;;;;;;;5.10;0.70;;;;;;;5.23;100.00;100717.06;7397837;19;20014;-91
2022/11/30 09:01:10;;;;;;;8.38;1.13;;;;;;;4.49;100.00;100731.88;7398806;19;20017;-93
2022/11/30 09:03:37;;;;;;;1.65;1.00;;;;;;;6.11;100.00;100731.34;7397538;19;20506;-92
2022/11/30 09:06:09;;;;;;;5.47;1.10;;;;;;;12.77;100.00;100727.19;7395718;19;20018;-92
2022/11/30 09:08:35;;;;;;;8.90;1.90;;;;;;;13.88;100.00;100713.00;7395891;19;20031;-92
2022/11/30 09:11:23;;;;;;;2.40;1.02;;;;;;;8.19;100.00;100730.06;7396414;19;20041;-93
2022/11/30 09:13:49;;;;;;;8.77;1.20;;;;;;;7.44;100.00;100727.66;7395816;19;20021;-92
2022/11/30 09:16:17;;;;;;;0.35;0.35;;;;;;;7.55;100.00;100724.63;7393532;19;20023;-93
2022/11/30 09:18:44;;;;;;;1.58;0.80;;;;;;;7.34;100.00;100723.13;7394011;19;20047;-93
2022/11/30 09:21:13;;;;;;;0.77;0.50;;;;;;;11.48;100.00;100723.22;7399841;19;20798;-93
2022/11/30 09:23:40;;;;;;;5.25;1.58;;;;;;;5.91;100.00;100727.78;7394903;19;20018;-92
2022/11/30 09:26:08;;;;;;;0.75;0.75;;;;;;;5.23;100.00;100730.06;7394142;19;20035;-92
2022/11/30 09:28:34;;;;;;;8.38;1.42;;;;;;;4.90;100.00;100730.94;7395777;19;20015;-93
2022/11/30 09:31:06;;;;;;;1.95;1.05;;;;;;;5.75;100.00;100736.72;7397637;19;20003;-92
2022/11/30 09:33:32;;;;;;;;;;;;;;;4.85;100.00;100751.50;7397437;19;20034;-92
2022/11/30 09:36:01;;;;;;;3.03;1.23;;;;;;;4.71;100.00;100750.91;7396094;19;19927;-92
2022/11/30 09:38:28;;;;;;;3.28;0.95;;;;;;;4.55;100.00;100766.09;7395289;19;20049;-91
2022/11/30 09:40:59;;;;;;;0.43;0.43;;;;;;;4.55;100.00;100766.09;7397262;19;20017;-91
2022/11/30 09:43:39;;;;;;;;;;;;;;;4.80;100.00;100765.78;7397325;19;20357;-95
2022/11/30 09:46:09;;;;;;;1.38;0.75;;;;;;;4.68;100.00;100773.81;7394607;19;20299;-94
2022/11/30 09:48:50;;;;;;;4.03;0.80;;;;;;;5.34;100.00;100772.13;7394824;19;20018;-96
2022/11/30 09:51:23;;;;;;;1.20;1.10;;;;;;;5.42;100.00;100764.47;7397907;19;20082;-93
2022/11/30 09:54:13;;;;;;;5.30;2.03;;;;;;;6.20;100.00;100758.44;7396335;19;20405;-93
2022/11/30 09:56:42;;;;;;;9.55;1.25;;;;;;;8.88;100.00;100747.94;7393927;19;20019;-93
2022/11/30 09:59:28;;;;;;;6.20;1.42;;;;;;;6.80;100.00;100752.47;7397462;19;20515;-94
2022/11/30 10:02:08;;;;;;;4.57;0.70;;;;;;;5.35;100.00;100757.09;7399706;19;20021;-89
2022/11/30 10:04:34;;;;;;;2.60;0.85;;;;;;;5.36;100.00;100766.94;7397951;19;20031;-95
2022/11/30 10:07:22;;;;;;;4.47;1.95;;;;;;;6.13;100.00;100768.44;7395210;19;20014;-95
2022/11/30 10:09:51;;;;;;;1.02;0.45;;;;;;;5.78;100.00;100771.78;7395370;19;20019;-95
2022/11/30 10:12:30;;;;;;;1.80;0.82;;;;;;;5.29;100.00;100780.84;7395715;19;20461;-94
2022/11/30 10:15:15;;;;;;;4.03;1.40;;;;;;;5.66;100.00;100775.16;7394490;19;20032;-95
2022/11/30 10:17:52;;;;;;;1.95;0.95;;;;;;;6.40;100.00;100776.63;7391024;19;20026;-94
2022/11/30 10:20:21;;;;;;;3.20;1.58;;;;;;;5.60;100.00;100785.13;7392825;19;20013;-94
2022/11/30 10:23:09;;;;;;;13.00;2.60;;;;;;;5.52;100.00;100788.41;7390379;19;20015;-95
2022/11/30 10:25:35;;;;;;;0.22;0.20;;;;;;;5.22;100.00;100792.78;7392106;19;20014;-95
2022/11/30 10:28:24;;;;;;;7.32;2.10;;;;;;;5.15;100.00;100797.66;7393231;19;20018;-94
2022/11/30 10:30:50;;;;;;;12.05;1.60;;;;;;;4.92;100.00;100800.31;7398135;19;20019;-95
2022/11/30 10:33:22;;;;;;;3.83;1.00;;;;;;;5.12;100.00;100802.00;7393245;19;20662;-95
2022/11/30 10:35:51;;;;;;;11.52;1.42;;;;;;;5.10;100.00;100800.84;7390006;19;20417;-95
2022/11/30 10:38:29;;;;;;;3.08;0.77;;;;;;;5.08;100.00;100803.25;7387907;19;20015;-95
2022/11/30 10:41:02;;;;;;;2.80;0.93;;;;;;;6.11;100.00;100811.53;7383532;19;20090;-95
2022/11/30 10:43:37;;;;;;;9.75;2.17;;;;;;;5.55;100.00;100802.16;7381375;19;20353;-94
2022/11/30 10:46:04;;;;;;;7.07;0.90;;;;;;;5.82;100.00;100805.69;7383059;19;20026;-93
2022/11/30 10:48:30;;;;;;;16.08;2.15;;;;;;;5.53;100.00;100814.84;7384400;19;20031;-94
2022/11/30 10:50:58;;;;;;;1.48;1.38;;;;;;;5.90;100.00;100815.44;7385639;19;20546;-94
2022/11/30 10:53:24;;;;;;;1.17;1.00;;;;;;;6.64;100.00;100816.88;7382937;19;20032;-95
2022/11/30 10:56:10;;;;;;;0.77;0.60;;;;;;;8.39;100.00;100813.22;7385080;19;20023;-94
2022/11/30 10:58:54;;;;;;;18.00;0.80;;;;;;;6.05;100.00;100821.50;7385150;19;20043;-95
2022/11/30 11:01:32;;;;;;;0.65;0.52;;;;;;;5.91;100.00;100821.78;7386773;19;20363;-94
2022/11/30 11:04:10;;;;;;;4.40;1.27;;;;;;;5.95;100.00;100826.03;7392337;19;20035;-94
2022/11/30 11:06:53;;;;;;;1.85;0.68;;;;;;;5.75;100.00;100835.41;7390770;19;20015;-95
2022/11/30 11:09:28;;;;;;;1.02;0.98;;;;;;;5.49;100.00;100836.22;7394281;19;20031;-96
2022/11/30 11:12:16;;;;;;;1.77;0.60;;;;;;;5.36;100.00;100836.00;7397365;19;20010;-95
2022/11/30 11:14:43;;;;;;;0.93;0.65;;;;;;;5.23;100.00;100844.06;7392198;19;20857;-95
2022/11/30 11:17:18;;;;;;;1.33;0.40;;;;;;;5.69;100.00;100848.94;7389704;19;20347;-95
2022/11/30 11:19:46;;;;;;;4.93;1.20;;;;;;;6.02;100.00;100842.50;7390848;19;20093;-95
2022/11/30 11:22:12;;;;;;;2.72;1.50;;;;;;;7.21;100.00;100838.63;7395846;19;20018;-95
2022/11/30 11:24:38;;;;;;;0.90;0.60;;;;;;;9.22;100.00;100825.13;7389677;19;20409;-95
2022/11/30 11:27:04;;;;;;;0.50;0.50;;;;;;;7.12;100.00;100826.56;7394124;19;20480;-95
2022/11/30 11:29:35;;;;;;;4.10;1.83;;;;;;;7.73;100.00;100822.00;7391843;19;20022;-94
2022/11/30 11:32:15;;;;;;;6.60;1.27;;;;;;;6.31;100.00;100822.63;7397000;19;20082;-96
2022/11/30 11:34:42;;;;;;;2.15;1.15;;;;;;;6.10;100.00;100830.13;7401240;19;20014;-96
2022/11/30 11:37:30;;;;;;;1.58;0.95;;;;;;;6.79;100.00;100820.91;7391210;19;20043;-95